Huttonsville, West Virginia
Current Conditions -  °F | °C
As of 5:51 AM on Sunday 23 Nov 2014 (Local Time) from KEKN Reporting Station
Broken Clouds Broken Clouds  
Wind Chill: 29°   Ceiling: 3300
Heat Index: 29°   Visibility: 10mi
Dew Point: 28°   Wind: 0mph
Humidity: 96%   Direction: NA
Pressure: 30.17"   Gusts: NA
Location:  38.71°N, 79.98°W
Report Text: KEKN 231051Z AUTO 00000KT 10SM BKN033 M02/M02 A3017 RMK AO2 SLP238 T10171022 TSNO
Loading
Personal Weather Stations






























Interactive Weather Map New forecast layout! Learn more

10-Day Weather Forecast

Advertisements
Track Severe Weather on mobile